sensor_id;sensor_type;location;lat;lon;timestamp;P1;durP1;ratioP1;P2;durP2;ratioP2
17207;SDS011;8720;48.488;9.202;2023-12-20T00:01:03;4.40;;;4.00;;
17207;SDS011;8720;48.488;9.202;2023-12-20T00:03:30;5.00;;;4.40;;
17207;SDS011;8720;48.488;9.202;2023-12-20T00:05:57;5.40;;;4.23;;
17207;SDS011;8720;48.488;9.202;2023-12-20T00:08:25;5.60;;;4.10;;
17207;SDS011;8720;48.488;9.202;2023-12-20T00:10:52;4.73;;;3.80;;
17207;SDS011;8720;48.488;9.202;2023-12-20T00:13:20;3.70;;;3.10;;
17207;SDS011;8720;48.488;9.202;2023-12-20T00:15:48;3.67;;;3.03;;
17207;SDS011;8720;48.488;9.202;2023-12-20T00:18:15;4.70;;;3.17;;
17207;SDS011;8720;48.488;9.202;2023-12-20T00:20:42;4.00;;;3.10;;
17207;SDS011;8720;48.488;9.202;2023-12-20T00:23:10;3.80;;;3.10;;
17207;SDS011;8720;48.488;9.202;2023-12-20T00:25:37;3.27;;;2.80;;
17207;SDS011;8720;48.488;9.202;2023-12-20T00:28:05;3.13;;;2.80;;
17207;SDS011;8720;48.488;9.202;2023-12-20T00:30:34;3.40;;;3.00;;
17207;SDS011;8720;48.488;9.202;2023-12-20T00:33:01;4.40;;;3.37;;
17207;SDS011;8720;48.488;9.202;2023-12-20T00:35:29;3.83;;;3.20;;
17207;SDS011;8720;48.488;9.202;2023-12-20T00:37:57;3.73;;;2.70;;
17207;SDS011;8720;48.488;9.202;2023-12-20T00:40:25;3.30;;;3.00;;
17207;SDS011;8720;48.488;9.202;2023-12-20T00:42:52;3.30;;;2.77;;
17207;SDS011;8720;48.488;9.202;2023-12-20T00:45:20;3.63;;;2.83;;
17207;SDS011;8720;48.488;9.202;2023-12-20T00:47:48;2.67;;;2.43;;
17207;SDS011;8720;48.488;9.202;2023-12-20T00:50:16;3.43;;;2.50;;
17207;SDS011;8720;48.488;9.202;2023-12-20T00:52:43;3.53;;;2.80;;
17207;SDS011;8720;48.488;9.202;2023-12-20T00:55:11;2.80;;;2.40;;
17207;SDS011;8720;48.488;9.202;2023-12-20T00:57:39;2.93;;;2.40;;
17207;SDS011;8720;48.488;9.202;2023-12-20T01:00:06;3.10;;;2.67;;
17207;SDS011;8720;48.488;9.202;2023-12-20T01:02:35;3.43;;;3.13;;
17207;SDS011;8720;48.488;9.202;2023-12-20T01:05:04;2.70;;;2.50;;
17207;SDS011;8720;48.488;9.202;2023-12-20T01:07:34;2.70;;;2.13;;
17207;SDS011;8720;48.488;9.202;2023-12-20T01:10:01;3.07;;;2.60;;
17207;SDS011;8720;48.488;9.202;2023-12-20T01:12:29;2.70;;;2.50;;
17207;SDS011;8720;48.488;9.202;2023-12-20T01:14:56;3.33;;;2.10;;
17207;SDS011;8720;48.488;9.202;2023-12-20T01:17:24;1.50;;;1.40;;
17207;SDS011;8720;48.488;9.202;2023-12-20T01:19:51;1.60;;;1.30;;
17207;SDS011;8720;48.488;9.202;2023-12-20T01:22:20;1.80;;;1.40;;
17207;SDS011;8720;48.488;9.202;2023-12-20T01:24:47;1.63;;;1.40;;
17207;SDS011;8720;48.488;9.202;2023-12-20T01:27:14;1.70;;;1.33;;
17207;SDS011;8720;48.488;9.202;2023-12-20T01:29:42;1.50;;;1.40;;
17207;SDS011;8720;48.488;9.202;2023-12-20T01:32:09;1.50;;;1.20;;
17207;SDS011;8720;48.488;9.202;2023-12-20T01:34:36;1.80;;;1.17;;
17207;SDS011;8720;48.488;9.202;2023-12-20T01:37:04;1.20;;;0.97;;
17207;SDS011;8720;48.488;9.202;2023-12-20T01:39:32;1.30;;;1.00;;
17207;SDS011;8720;48.488;9.202;2023-12-20T01:42:00;1.87;;;1.30;;
17207;SDS011;8720;48.488;9.202;2023-12-20T01:44:27;1.50;;;1.40;;
17207;SDS011;8720;48.488;9.202;2023-12-20T01:46:54;1.50;;;1.10;;
17207;SDS011;8720;48.488;9.202;2023-12-20T01:49:22;1.20;;;0.90;;
17207;SDS011;8720;48.488;9.202;2023-12-20T01:51:51;1.67;;;1.17;;
17207;SDS011;8720;48.488;9.202;2023-12-20T01:54:18;2.07;;;1.13;;
17207;SDS011;8720;48.488;9.202;2023-12-20T01:56:48;2.53;;;1.13;;
17207;SDS011;8720;48.488;9.202;2023-12-20T01:59:17;2.07;;;1.00;;
17207;SDS011;8720;48.488;9.202;2023-12-20T02:01:47;1.50;;;1.00;;
17207;SDS011;8720;48.488;9.202;2023-12-20T02:04:14;1.60;;;0.80;;
17207;SDS011;8720;48.488;9.202;2023-12-20T02:06:43;1.40;;;1.00;;
17207;SDS011;8720;48.488;9.202;2023-12-20T02:09:12;1.63;;;1.00;;
17207;SDS011;8720;48.488;9.202;2023-12-20T02:11:41;1.10;;;0.80;;
17207;SDS011;8720;48.488;9.202;2023-12-20T02:14:10;1.20;;;0.90;;
17207;SDS011;8720;48.488;9.202;2023-12-20T02:16:38;1.30;;;0.90;;
17207;SDS011;8720;48.488;9.202;2023-12-20T02:19:06;2.53;;;0.97;;
17207;SDS011;8720;48.488;9.202;2023-12-20T02:21:42;1.70;;;0.93;;
17207;SDS011;8720;48.488;9.202;2023-12-20T02:24:09;1.60;;;1.00;;
17207;SDS011;8720;48.488;9.202;2023-12-20T02:26:36;1.10;;;0.83;;
17207;SDS011;8720;48.488;9.202;2023-12-20T02:29:04;1.40;;;1.13;;
17207;SDS011;8720;48.488;9.202;2023-12-20T02:31:32;1.30;;;1.00;;
17207;SDS011;8720;48.488;9.202;2023-12-20T02:33:59;1.63;;;0.97;;
17207;SDS011;8720;48.488;9.202;2023-12-20T02:36:26;2.00;;;0.90;;
17207;SDS011;8720;48.488;9.202;2023-12-20T02:38:55;1.87;;;0.93;;
17207;SDS011;8720;48.488;9.202;2023-12-20T02:41:22;1.27;;;0.90;;
17207;SDS011;8720;48.488;9.202;2023-12-20T02:43:49;1.30;;;1.00;;
17207;SDS011;8720;48.488;9.202;2023-12-20T02:46:17;1.20;;;1.00;;
17207;SDS011;8720;48.488;9.202;2023-12-20T02:48:44;3.83;;;0.90;;
17207;SDS011;8720;48.488;9.202;2023-12-20T02:51:12;2.73;;;1.70;;
17207;SDS011;8720;48.488;9.202;2023-12-20T02:53:39;1.00;;;0.80;;
17207;SDS011;8720;48.488;9.202;2023-12-20T02:56:08;1.23;;;1.00;;
17207;SDS011;8720;48.488;9.202;2023-12-20T02:58:35;1.20;;;0.90;;
17207;SDS011;8720;48.488;9.202;2023-12-20T03:03:44;1.30;;;1.00;;
17207;SDS011;8720;48.488;9.202;2023-12-20T03:06:13;1.40;;;0.90;;
17207;SDS011;8720;48.488;9.202;2023-12-20T03:08:43;1.20;;;1.00;;
17207;SDS011;8720;48.488;9.202;2023-12-20T03:11:12;1.17;;;0.93;;
17207;SDS011;8720;48.488;9.202;2023-12-20T03:13:39;1.30;;;1.00;;
17207;SDS011;8720;48.488;9.202;2023-12-20T03:16:10;1.30;;;1.00;;
17207;SDS011;8720;48.488;9.202;2023-12-20T03:18:38;1.10;;;0.90;;
17207;SDS011;8720;48.488;9.202;2023-12-20T03:21:06;1.20;;;0.90;;
17207;SDS011;8720;48.488;9.202;2023-12-20T03:23:33;1.30;;;1.10;;
17207;SDS011;8720;48.488;9.202;2023-12-20T03:26:00;1.07;;;0.80;;
17207;SDS011;8720;48.488;9.202;2023-12-20T03:28:29;1.23;;;1.00;;
17207;SDS011;8720;48.488;9.202;2023-12-20T03:30:59;1.00;;;0.77;;
17207;SDS011;8720;48.488;9.202;2023-12-20T03:33:27;1.10;;;0.83;;
17207;SDS011;8720;48.488;9.202;2023-12-20T03:35:54;1.20;;;1.00;;
17207;SDS011;8720;48.488;9.202;2023-12-20T03:38:22;1.00;;;0.80;;
17207;SDS011;8720;48.488;9.202;2023-12-20T03:40:49;1.10;;;0.90;;
17207;SDS011;8720;48.488;9.202;2023-12-20T03:43:17;1.77;;;1.60;;
17207;SDS011;8720;48.488;9.202;2023-12-20T03:45:46;1.07;;;0.80;;
17207;SDS011;8720;48.488;9.202;2023-12-20T03:48:13;1.00;;;0.80;;
17207;SDS011;8720;48.488;9.202;2023-12-20T03:50:40;1.17;;;0.80;;
17207;SDS011;8720;48.488;9.202;2023-12-20T03:53:08;1.50;;;0.90;;
17207;SDS011;8720;48.488;9.202;2023-12-20T03:55:35;1.37;;;0.80;;
17207;SDS011;8720;48.488;9.202;2023-12-20T03:58:02;1.13;;;0.87;;
17207;SDS011;8720;48.488;9.202;2023-12-20T04:00:30;1.37;;;0.87;;
17207;SDS011;8720;48.488;9.202;2023-12-20T04:02:58;1.53;;;1.10;;
17207;SDS011;8720;48.488;9.202;2023-12-20T04:05:26;1.63;;;1.00;;
17207;SDS011;8720;48.488;9.202;2023-12-20T04:07:53;1.00;;;0.70;;
17207;SDS011;8720;48.488;9.202;2023-12-20T04:10:20;2.60;;;0.80;;
17207;SDS011;8720;48.488;9.202;2023-12-20T04:12:48;1.33;;;0.80;;
17207;SDS011;8720;48.488;9.202;2023-12-20T04:15:15;1.20;;;0.80;;
17207;SDS011;8720;48.488;9.202;2023-12-20T04:17:42;1.13;;;0.70;;
17207;SDS011;8720;48.488;9.202;2023-12-20T04:20:11;1.00;;;0.70;;
17207;SDS011;8720;48.488;9.202;2023-12-20T04:22:38;1.10;;;0.77;;
17207;SDS011;8720;48.488;9.202;2023-12-20T04:25:06;1.10;;;0.70;;
17207;SDS011;8720;48.488;9.202;2023-12-20T04:27:34;1.10;;;0.77;;
17207;SDS011;8720;48.488;9.202;2023-12-20T04:30:01;1.40;;;0.70;;
17207;SDS011;8720;48.488;9.202;2023-12-20T04:32:29;1.00;;;0.70;;
17207;SDS011;8720;48.488;9.202;2023-12-20T04:34:56;1.00;;;0.67;;
17207;SDS011;8720;48.488;9.202;2023-12-20T04:37:25;0.93;;;0.60;;
17207;SDS011;8720;48.488;9.202;2023-12-20T04:39:52;0.90;;;0.60;;
17207;SDS011;8720;48.488;9.202;2023-12-20T04:42:20;1.10;;;0.70;;
17207;SDS011;8720;48.488;9.202;2023-12-20T04:44:47;0.90;;;0.60;;
17207;SDS011;8720;48.488;9.202;2023-12-20T04:47:14;1.00;;;0.60;;
17207;SDS011;8720;48.488;9.202;2023-12-20T04:49:41;1.33;;;0.70;;
17207;SDS011;8720;48.488;9.202;2023-12-20T04:52:09;0.93;;;0.70;;
17207;SDS011;8720;48.488;9.202;2023-12-20T04:54:38;0.97;;;0.70;;
17207;SDS011;8720;48.488;9.202;2023-12-20T04:57:05;1.30;;;0.80;;
17207;SDS011;8720;48.488;9.202;2023-12-20T04:59:32;0.93;;;0.60;;
17207;SDS011;8720;48.488;9.202;2023-12-20T05:01:59;1.00;;;0.70;;
17207;SDS011;8720;48.488;9.202;2023-12-20T05:04:27;1.53;;;0.60;;
17207;SDS011;8720;48.488;9.202;2023-12-20T05:06:54;1.10;;;0.70;;
17207;SDS011;8720;48.488;9.202;2023-12-20T05:09:21;1.10;;;0.70;;
17207;SDS011;8720;48.488;9.202;2023-12-20T05:11:50;1.10;;;0.60;;
17207;SDS011;8720;48.488;9.202;2023-12-20T05:14:17;1.00;;;0.80;;
17207;SDS011;8720;48.488;9.202;2023-12-20T05:16:44;0.90;;;0.60;;
17207;SDS011;8720;48.488;9.202;2023-12-20T05:19:12;1.07;;;0.80;;
17207;SDS011;8720;48.488;9.202;2023-12-20T05:21:39;0.90;;;0.60;;
17207;SDS011;8720;48.488;9.202;2023-12-20T05:24:07;0.93;;;0.60;;
17207;SDS011;8720;48.488;9.202;2023-12-20T05:26:34;1.00;;;0.60;;
17207;SDS011;8720;48.488;9.202;2023-12-20T05:29:03;1.37;;;1.00;;
17207;SDS011;8720;48.488;9.202;2023-12-20T05:31:31;0.90;;;0.60;;
17207;SDS011;8720;48.488;9.202;2023-12-20T05:33:58;0.90;;;0.60;;
17207;SDS011;8720;48.488;9.202;2023-12-20T05:36:25;1.10;;;0.70;;
17207;SDS011;8720;48.488;9.202;2023-12-20T05:38:53;1.00;;;0.60;;
17207;SDS011;8720;48.488;9.202;2023-12-20T05:41:20;0.90;;;0.60;;
17207;SDS011;8720;48.488;9.202;2023-12-20T05:43:48;1.00;;;0.70;;
17207;SDS011;8720;48.488;9.202;2023-12-20T05:46:17;1.07;;;0.67;;
17207;SDS011;8720;48.488;9.202;2023-12-20T05:48:44;1.00;;;0.80;;
17207;SDS011;8720;48.488;9.202;2023-12-20T05:51:11;0.93;;;0.67;;
17207;SDS011;8720;48.488;9.202;2023-12-20T05:53:39;0.90;;;0.60;;
17207;SDS011;8720;48.488;9.202;2023-12-20T05:56:06;0.93;;;0.60;;
17207;SDS011;8720;48.488;9.202;2023-12-20T05:58:33;0.90;;;0.50;;
17207;SDS011;8720;48.488;9.202;2023-12-20T06:01:01;1.00;;;0.60;;
17207;SDS011;8720;48.488;9.202;2023-12-20T06:03:32;0.90;;;0.60;;
17207;SDS011;8720;48.488;9.202;2023-12-20T06:06:03;0.93;;;0.60;;
17207;SDS011;8720;48.488;9.202;2023-12-20T06:08:33;1.00;;;0.60;;
17207;SDS011;8720;48.488;9.202;2023-12-20T06:11:00;1.10;;;0.70;;
17207;SDS011;8720;48.488;9.202;2023-12-20T06:13:27;1.00;;;0.60;;
17207;SDS011;8720;48.488;9.202;2023-12-20T06:15:55;0.90;;;0.60;;
17207;SDS011;8720;48.488;9.202;2023-12-20T06:18:23;1.00;;;0.63;;
17207;SDS011;8720;48.488;9.202;2023-12-20T06:20:52;0.90;;;0.60;;
17207;SDS011;8720;48.488;9.202;2023-12-20T06:23:19;1.10;;;0.70;;
17207;SDS011;8720;48.488;9.202;2023-12-20T06:25:46;1.00;;;0.60;;
17207;SDS011;8720;48.488;9.202;2023-12-20T06:28:13;1.17;;;0.80;;
17207;SDS011;8720;48.488;9.202;2023-12-20T06:30:41;1.10;;;0.60;;
17207;SDS011;8720;48.488;9.202;2023-12-20T06:33:08;0.90;;;0.60;;
17207;SDS011;8720;48.488;9.202;2023-12-20T06:35:36;1.87;;;0.70;;
17207;SDS011;8720;48.488;9.202;2023-12-20T06:38:05;1.00;;;0.70;;
17207;SDS011;8720;48.488;9.202;2023-12-20T06:40:33;0.90;;;0.60;;
17207;SDS011;8720;48.488;9.202;2023-12-20T06:43:01;1.00;;;0.77;;
17207;SDS011;8720;48.488;9.202;2023-12-20T06:45:28;0.90;;;0.60;;
17207;SDS011;8720;48.488;9.202;2023-12-20T06:47:55;1.00;;;0.70;;
17207;SDS011;8720;48.488;9.202;2023-12-20T06:50:23;1.30;;;0.77;;
17207;SDS011;8720;48.488;9.202;2023-12-20T06:52:50;1.00;;;0.70;;
17207;SDS011;8720;48.488;9.202;2023-12-20T06:55:19;1.20;;;0.70;;
17207;SDS011;8720;48.488;9.202;2023-12-20T06:57:46;1.00;;;0.73;;
17207;SDS011;8720;48.488;9.202;2023-12-20T07:00:14;1.47;;;0.80;;
17207;SDS011;8720;48.488;9.202;2023-12-20T07:02:43;1.80;;;0.70;;
17207;SDS011;8720;48.488;9.202;2023-12-20T07:05:12;1.60;;;0.70;;
17207;SDS011;8720;48.488;9.202;2023-12-20T07:07:45;1.10;;;0.70;;
17207;SDS011;8720;48.488;9.202;2023-12-20T07:10:12;1.40;;;0.70;;
17207;SDS011;8720;48.488;9.202;2023-12-20T07:12:41;1.10;;;0.70;;
17207;SDS011;8720;48.488;9.202;2023-12-20T07:15:09;1.10;;;0.60;;
17207;SDS011;8720;48.488;9.202;2023-12-20T07:17:37;1.00;;;0.60;;
17207;SDS011;8720;48.488;9.202;2023-12-20T07:20:05;0.90;;;0.60;;
17207;SDS011;8720;48.488;9.202;2023-12-20T07:22:36;1.00;;;0.60;;
17207;SDS011;8720;48.488;9.202;2023-12-20T07:25:04;1.27;;;0.70;;
17207;SDS011;8720;48.488;9.202;2023-12-20T07:27:33;1.93;;;0.70;;
17207;SDS011;8720;48.488;9.202;2023-12-20T07:30:01;1.20;;;0.77;;
17207;SDS011;8720;48.488;9.202;2023-12-20T07:32:30;1.63;;;0.60;;
17207;SDS011;8720;48.488;9.202;2023-12-20T07:34:57;1.00;;;0.60;;
17207;SDS011;8720;48.488;9.202;2023-12-20T07:37:24;3.17;;;0.80;;
17207;SDS011;8720;48.488;9.202;2023-12-20T07:39:52;1.00;;;0.63;;
17207;SDS011;8720;48.488;9.202;2023-12-20T07:42:19;1.60;;;0.80;;
17207;SDS011;8720;48.488;9.202;2023-12-20T07:44:47;0.97;;;0.60;;
17207;SDS011;8720;48.488;9.202;2023-12-20T07:47:15;1.00;;;0.80;;
17207;SDS011;8720;48.488;9.202;2023-12-20T07:49:46;3.40;;;0.80;;
17207;SDS011;8720;48.488;9.202;2023-12-20T07:52:14;1.00;;;0.70;;
17207;SDS011;8720;48.488;9.202;2023-12-20T07:54:42;1.83;;;0.70;;
17207;SDS011;8720;48.488;9.202;2023-12-20T07:57:09;1.00;;;0.60;;
17207;SDS011;8720;48.488;9.202;2023-12-20T07:59:37;1.20;;;0.80;;
17207;SDS011;8720;48.488;9.202;2023-12-20T08:02:04;2.37;;;0.80;;
17207;SDS011;8720;48.488;9.202;2023-12-20T08:04:33;1.30;;;0.90;;
17207;SDS011;8720;48.488;9.202;2023-12-20T08:07:01;1.70;;;0.90;;
17207;SDS011;8720;48.488;9.202;2023-12-20T08:09:29;1.20;;;0.87;;
17207;SDS011;8720;48.488;9.202;2023-12-20T08:11:57;2.00;;;0.90;;
17207;SDS011;8720;48.488;9.202;2023-12-20T08:14:25;1.27;;;1.00;;
17207;SDS011;8720;48.488;9.202;2023-12-20T08:16:52;1.40;;;1.00;;
17207;SDS011;8720;48.488;9.202;2023-12-20T08:19:19;1.40;;;0.90;;
17207;SDS011;8720;48.488;9.202;2023-12-20T08:21:48;1.57;;;1.13;;
17207;SDS011;8720;48.488;9.202;2023-12-20T08:24:16;1.10;;;0.80;;
17207;SDS011;8720;48.488;9.202;2023-12-20T08:26:43;1.23;;;1.00;;
17207;SDS011;8720;48.488;9.202;2023-12-20T08:29:12;1.30;;;0.90;;
17207;SDS011;8720;48.488;9.202;2023-12-20T08:31:39;1.60;;;1.00;;
17207;SDS011;8720;48.488;9.202;2023-12-20T08:34:07;1.27;;;0.97;;
17207;SDS011;8720;48.488;9.202;2023-12-20T08:36:37;1.80;;;1.40;;
17207;SDS011;8720;48.488;9.202;2023-12-20T08:39:05;1.50;;;1.17;;
17207;SDS011;8720;48.488;9.202;2023-12-20T08:41:34;1.67;;;0.90;;
17207;SDS011;8720;48.488;9.202;2023-12-20T08:44:02;2.70;;;1.20;;
17207;SDS011;8720;48.488;9.202;2023-12-20T08:46:30;1.63;;;1.03;;
17207;SDS011;8720;48.488;9.202;2023-12-20T08:48:57;1.70;;;0.90;;
17207;SDS011;8720;48.488;9.202;2023-12-20T08:51:25;1.60;;;1.00;;
17207;SDS011;8720;48.488;9.202;2023-12-20T08:53:53;1.60;;;1.10;;
17207;SDS011;8720;48.488;9.202;2023-12-20T08:56:22;1.40;;;1.10;;
17207;SDS011;8720;48.488;9.202;2023-12-20T08:58:50;1.73;;;1.13;;
17207;SDS011;8720;48.488;9.202;2023-12-20T09:01:17;1.43;;;1.00;;
17207;SDS011;8720;48.488;9.202;2023-12-20T09:03:44;1.70;;;1.17;;
17207;SDS011;8720;48.488;9.202;2023-12-20T09:06:12;1.20;;;0.87;;
17207;SDS011;8720;48.488;9.202;2023-12-20T09:08:39;1.30;;;0.90;;
17207;SDS011;8720;48.488;9.202;2023-12-20T09:11:06;1.17;;;0.90;;
17207;SDS011;8720;48.488;9.202;2023-12-20T09:13:38;1.20;;;0.80;;
17207;SDS011;8720;48.488;9.202;2023-12-20T09:16:05;2.10;;;1.00;;
17207;SDS011;8720;48.488;9.202;2023-12-20T09:18:33;1.30;;;0.90;;
17207;SDS011;8720;48.488;9.202;2023-12-20T09:21:00;1.50;;;1.10;;
17207;SDS011;8720;48.488;9.202;2023-12-20T09:23:27;1.40;;;1.10;;
17207;SDS011;8720;48.488;9.202;2023-12-20T09:25:55;1.23;;;1.03;;
17207;SDS011;8720;48.488;9.202;2023-12-20T09:28:22;3.00;;;1.37;;
17207;SDS011;8720;48.488;9.202;2023-12-20T09:30:51;2.17;;;1.10;;
17207;SDS011;8720;48.488;9.202;2023-12-20T09:33:18;2.33;;;1.50;;
17207;SDS011;8720;48.488;9.202;2023-12-20T09:35:45;1.83;;;1.40;;
17207;SDS011;8720;48.488;9.202;2023-12-20T09:38:13;1.80;;;1.53;;
17207;SDS011;8720;48.488;9.202;2023-12-20T09:40:42;1.80;;;1.43;;
17207;SDS011;8720;48.488;9.202;2023-12-20T09:43:10;2.40;;;1.63;;
17207;SDS011;8720;48.488;9.202;2023-12-20T09:45:41;2.13;;;1.40;;
17207;SDS011;8720;48.488;9.202;2023-12-20T09:48:14;3.27;;;1.70;;
17207;SDS011;8720;48.488;9.202;2023-12-20T09:50:45;3.47;;;1.63;;
17207;SDS011;8720;48.488;9.202;2023-12-20T09:53:14;2.63;;;1.70;;
17207;SDS011;8720;48.488;9.202;2023-12-20T09:55:44;4.10;;;1.97;;
17207;SDS011;8720;48.488;9.202;2023-12-20T09:58:11;3.30;;;1.83;;
17207;SDS011;8720;48.488;9.202;2023-12-20T10:00:39;2.53;;;1.90;;
17207;SDS011;8720;48.488;9.202;2023-12-20T10:03:06;5.00;;;2.03;;
17207;SDS011;8720;48.488;9.202;2023-12-20T10:05:36;3.30;;;1.73;;
17207;SDS011;8720;48.488;9.202;2023-12-20T10:08:06;3.00;;;1.80;;
17207;SDS011;8720;48.488;9.202;2023-12-20T10:10:33;2.97;;;1.93;;
17207;SDS011;8720;48.488;9.202;2023-12-20T10:13:01;2.07;;;1.63;;
17207;SDS011;8720;48.488;9.202;2023-12-20T10:15:32;3.70;;;2.17;;
17207;SDS011;8720;48.488;9.202;2023-12-20T10:17:59;5.20;;;2.43;;
17207;SDS011;8720;48.488;9.202;2023-12-20T10:20:27;2.63;;;2.40;;
17207;SDS011;8720;48.488;9.202;2023-12-20T10:22:56;3.47;;;2.10;;
17207;SDS011;8720;48.488;9.202;2023-12-20T10:25:25;3.70;;;2.47;;
17207;SDS011;8720;48.488;9.202;2023-12-20T10:28:08;3.60;;;1.67;;
17207;SDS011;8720;48.488;9.202;2023-12-20T10:30:37;3.40;;;1.93;;
17207;SDS011;8720;48.488;9.202;2023-12-20T10:33:05;2.70;;;1.70;;
17207;SDS011;8720;48.488;9.202;2023-12-20T10:35:33;3.40;;;1.93;;
17207;SDS011;8720;48.488;9.202;2023-12-20T10:38:03;4.37;;;2.17;;
17207;SDS011;8720;48.488;9.202;2023-12-20T10:40:34;2.47;;;1.40;;
17207;SDS011;8720;48.488;9.202;2023-12-20T10:43:03;3.40;;;1.80;;
17207;SDS011;8720;48.488;9.202;2023-12-20T10:45:31;5.23;;;2.17;;
17207;SDS011;8720;48.488;9.202;2023-12-20T10:47:58;3.47;;;2.20;;
17207;SDS011;8720;48.488;9.202;2023-12-20T10:50:28;4.80;;;2.10;;
17207;SDS011;8720;48.488;9.202;2023-12-20T10:52:57;2.00;;;1.70;;
17207;SDS011;8720;48.488;9.202;2023-12-20T10:55:26;3.10;;;1.90;;
17207;SDS011;8720;48.488;9.202;2023-12-20T10:57:54;2.30;;;1.80;;
17207;SDS011;8720;48.488;9.202;2023-12-20T11:00:28;2.13;;;1.90;;
17207;SDS011;8720;48.488;9.202;2023-12-20T11:02:59;3.27;;;1.70;;
17207;SDS011;8720;48.488;9.202;2023-12-20T11:05:31;2.63;;;1.90;;
17207;SDS011;8720;48.488;9.202;2023-12-20T11:08:11;3.37;;;1.70;;
17207;SDS011;8720;48.488;9.202;2023-12-20T11:10:51;2.30;;;1.80;;
17207;SDS011;8720;48.488;9.202;2023-12-20T11:13:30;2.03;;;1.57;;
17207;SDS011;8720;48.488;9.202;2023-12-20T11:16:03;1.40;;;1.20;;
17207;SDS011;8720;48.488;9.202;2023-12-20T11:18:31;1.67;;;1.57;;
17207;SDS011;8720;48.488;9.202;2023-12-20T11:21:00;2.87;;;1.53;;
17207;SDS011;8720;48.488;9.202;2023-12-20T11:23:29;2.83;;;1.30;;
17207;SDS011;8720;48.488;9.202;2023-12-20T11:26:01;1.77;;;1.43;;
17207;SDS011;8720;48.488;9.202;2023-12-20T11:28:29;1.90;;;1.37;;
17207;SDS011;8720;48.488;9.202;2023-12-20T11:30:57;3.10;;;1.93;;
17207;SDS011;8720;48.488;9.202;2023-12-20T11:33:29;4.50;;;1.73;;
17207;SDS011;8720;48.488;9.202;2023-12-20T11:36:07;3.00;;;1.77;;
17207;SDS011;8720;48.488;9.202;2023-12-20T11:38:48;2.20;;;1.97;;
17207;SDS011;8720;48.488;9.202;2023-12-20T11:41:23;3.03;;;1.70;;
17207;SDS011;8720;48.488;9.202;2023-12-20T11:43:52;2.10;;;1.50;;
17207;SDS011;8720;48.488;9.202;2023-12-20T11:46:21;2.33;;;1.67;;
17207;SDS011;8720;48.488;9.202;2023-12-20T11:48:49;1.90;;;1.50;;
17207;SDS011;8720;48.488;9.202;2023-12-20T11:51:17;2.23;;;1.33;;
17207;SDS011;8720;48.488;9.202;2023-12-20T11:53:46;2.13;;;1.63;;
17207;SDS011;8720;48.488;9.202;2023-12-20T11:56:18;2.83;;;1.73;;
17207;SDS011;8720;48.488;9.202;2023-12-20T11:58:47;2.83;;;2.40;;
17207;SDS011;8720;48.488;9.202;2023-12-20T12:01:15;4.77;;;1.90;;
17207;SDS011;8720;48.488;9.202;2023-12-20T12:03:42;5.80;;;1.47;;
17207;SDS011;8720;48.488;9.202;2023-12-20T12:06:09;4.07;;;2.77;;
17207;SDS011;8720;48.488;9.202;2023-12-20T12:08:38;4.17;;;2.23;;
17207;SDS011;8720;48.488;9.202;2023-12-20T12:11:05;2.20;;;1.87;;
17207;SDS011;8720;48.488;9.202;2023-12-20T12:13:33;3.47;;;2.00;;
17207;SDS011;8720;48.488;9.202;2023-12-20T12:16:02;3.43;;;1.90;;
17207;SDS011;8720;48.488;9.202;2023-12-20T12:18:30;3.23;;;1.77;;
17207;SDS011;8720;48.488;9.202;2023-12-20T12:21:01;2.10;;;1.30;;
17207;SDS011;8720;48.488;9.202;2023-12-20T12:23:28;2.63;;;1.63;;
17207;SDS011;8720;48.488;9.202;2023-12-20T12:25:56;5.30;;;2.10;;
17207;SDS011;8720;48.488;9.202;2023-12-20T12:28:25;5.20;;;2.00;;
17207;SDS011;8720;48.488;9.202;2023-12-20T12:30:57;4.87;;;1.73;;
17207;SDS011;8720;48.488;9.202;2023-12-20T12:33:26;6.23;;;2.13;;
17207;SDS011;8720;48.488;9.202;2023-12-20T12:35:53;5.70;;;1.90;;
17207;SDS011;8720;48.488;9.202;2023-12-20T12:38:21;3.90;;;2.50;;
17207;SDS011;8720;48.488;9.202;2023-12-20T12:40:50;4.40;;;1.70;;
17207;SDS011;8720;48.488;9.202;2023-12-20T12:43:18;7.10;;;1.77;;
17207;SDS011;8720;48.488;9.202;2023-12-20T12:45:47;1.90;;;1.53;;
17207;SDS011;8720;48.488;9.202;2023-12-20T12:48:15;6.97;;;2.90;;
17207;SDS011;8720;48.488;9.202;2023-12-20T12:50:45;3.30;;;1.87;;
17207;SDS011;8720;48.488;9.202;2023-12-20T12:53:12;4.33;;;1.87;;
17207;SDS011;8720;48.488;9.202;2023-12-20T12:55:39;9.40;;;2.23;;
17207;SDS011;8720;48.488;9.202;2023-12-20T12:58:07;2.80;;;1.67;;
17207;SDS011;8720;48.488;9.202;2023-12-20T13:00:34;6.57;;;1.80;;
17207;SDS011;8720;48.488;9.202;2023-12-20T13:03:02;5.10;;;1.60;;
17207;SDS011;8720;48.488;9.202;2023-12-20T13:05:29;3.93;;;2.00;;
17207;SDS011;8720;48.488;9.202;2023-12-20T13:07:59;2.57;;;1.50;;
17207;SDS011;8720;48.488;9.202;2023-12-20T13:10:27;4.10;;;2.53;;
17207;SDS011;8720;48.488;9.202;2023-12-20T13:12:54;3.33;;;2.00;;
17207;SDS011;8720;48.488;9.202;2023-12-20T13:15:22;4.43;;;1.80;;
17207;SDS011;8720;48.488;9.202;2023-12-20T13:17:49;4.50;;;1.80;;
17207;SDS011;8720;48.488;9.202;2023-12-20T13:20:17;4.30;;;1.60;;
17207;SDS011;8720;48.488;9.202;2023-12-20T13:22:45;4.20;;;1.80;;
17207;SDS011;8720;48.488;9.202;2023-12-20T13:25:13;4.50;;;1.60;;
17207;SDS011;8720;48.488;9.202;2023-12-20T13:27:41;2.43;;;1.33;;
17207;SDS011;8720;48.488;9.202;2023-12-20T13:30:09;2.63;;;1.50;;
17207;SDS011;8720;48.488;9.202;2023-12-20T13:32:37;6.03;;;1.50;;
17207;SDS011;8720;48.488;9.202;2023-12-20T13:35:05;3.07;;;1.50;;
17207;SDS011;8720;48.488;9.202;2023-12-20T13:37:35;4.93;;;1.80;;
17207;SDS011;8720;48.488;9.202;2023-12-20T13:40:03;4.00;;;1.50;;
17207;SDS011;8720;48.488;9.202;2023-12-20T13:42:33;5.73;;;1.67;;
17207;SDS011;8720;48.488;9.202;2023-12-20T13:45:01;2.40;;;1.73;;
17207;SDS011;8720;48.488;9.202;2023-12-20T13:47:30;4.10;;;1.50;;
17207;SDS011;8720;48.488;9.202;2023-12-20T13:49:57;2.53;;;1.67;;
17207;SDS011;8720;48.488;9.202;2023-12-20T13:52:25;2.80;;;1.60;;
17207;SDS011;8720;48.488;9.202;2023-12-20T13:54:52;2.80;;;1.93;;
17207;SDS011;8720;48.488;9.202;2023-12-20T13:57:20;2.67;;;1.97;;
17207;SDS011;8720;48.488;9.202;2023-12-20T13:59:48;3.10;;;1.50;;
17207;SDS011;8720;48.488;9.202;2023-12-20T14:02:16;2.50;;;1.40;;
17207;SDS011;8720;48.488;9.202;2023-12-20T14:04:43;4.13;;;1.83;;
17207;SDS011;8720;48.488;9.202;2023-12-20T14:07:10;3.27;;;2.07;;
17207;SDS011;8720;48.488;9.202;2023-12-20T14:09:38;5.03;;;1.90;;
17207;SDS011;8720;48.488;9.202;2023-12-20T14:12:10;4.40;;;1.80;;
17207;SDS011;8720;48.488;9.202;2023-12-20T14:14:37;3.50;;;1.93;;
17207;SDS011;8720;48.488;9.202;2023-12-20T14:17:07;4.43;;;1.87;;
17207;SDS011;8720;48.488;9.202;2023-12-20T14:19:34;4.37;;;2.07;;
17207;SDS011;8720;48.488;9.202;2023-12-20T14:22:02;4.77;;;2.50;;
17207;SDS011;8720;48.488;9.202;2023-12-20T14:24:30;3.40;;;2.10;;
17207;SDS011;8720;48.488;9.202;2023-12-20T14:26:57;5.00;;;1.87;;
17207;SDS011;8720;48.488;9.202;2023-12-20T14:29:25;2.97;;;1.50;;
17207;SDS011;8720;48.488;9.202;2023-12-20T14:31:52;4.00;;;1.43;;
17207;SDS011;8720;48.488;9.202;2023-12-20T14:34:21;3.40;;;1.90;;
17207;SDS011;8720;48.488;9.202;2023-12-20T14:36:49;2.20;;;1.40;;
17207;SDS011;8720;48.488;9.202;2023-12-20T14:39:17;5.00;;;2.17;;
17207;SDS011;8720;48.488;9.202;2023-12-20T14:41:45;5.03;;;2.33;;
17207;SDS011;8720;48.488;9.202;2023-12-20T14:44:13;6.60;;;2.90;;
17207;SDS011;8720;48.488;9.202;2023-12-20T14:46:40;2.80;;;2.47;;
17207;SDS011;8720;48.488;9.202;2023-12-20T14:49:08;5.17;;;2.63;;
17207;SDS011;8720;48.488;9.202;2023-12-20T14:51:36;3.40;;;2.07;;
17207;SDS011;8720;48.488;9.202;2023-12-20T14:54:04;2.33;;;1.97;;
17207;SDS011;8720;48.488;9.202;2023-12-20T14:56:34;5.13;;;2.13;;
17207;SDS011;8720;48.488;9.202;2023-12-20T14:59:02;3.20;;;1.70;;
17207;SDS011;8720;48.488;9.202;2023-12-20T15:01:30;4.83;;;2.20;;
17207;SDS011;8720;48.488;9.202;2023-12-20T15:03:57;3.30;;;2.00;;
17207;SDS011;8720;48.488;9.202;2023-12-20T15:06:26;3.77;;;1.93;;
17207;SDS011;8720;48.488;9.202;2023-12-20T15:08:54;3.43;;;1.50;;